Latest Weather Observations for Tindal

IDD60801

Issued at 10:31 am CST Tuesday 20 October 2020 (issued every 10 minutes, with the page automatically refreshed every 10 minutes)

About weather observations | Map of weather stations | Latest weather observations for NT | Other Formats
Station Details ID: 014932 Name: TINDAL RAAF Lat: -14.52 Lon: 132.38 Height: 133.6 m
Data from the previous 72 hours. | See also: Recent months at Tindal
Date/Time
CST
Temp
°C
App
Temp
°C
Dew
Point
°C
Rel
Hum
%
Delta-T
°C
Wind Press
QNH
hPa
Press
MSL
hPa
Rain since
9am
mm
Dir  Spd
km/h
Gust
km/h
Spd
kts
Gust
kts
20/10:00am 32.7 33.9 21.5 51 7.6 NW 17 24 9 13 1012.1 1011.1 0.0
20/09:30am 31.6 32.7 21.2 54 7.0 WNW 17 24 9 13 1012.3 1011.3 0.0
20/09:00am 31.4 31.7 20.7 53 7.2 WNW 20 28 11 15 1012.3 1011.3 0.0
20/08:30am 30.1 30.6 20.9 57 6.2 NW 19 26 10 14 1012.2 1011.2 0.0
20/08:00am 29.1 30.4 21.6 64 5.1 NNW 17 22 9 12 1011.8 1010.8 0.0
20/07:30am 28.5 30.3 21.8 67 4.5 NNW 15 20 8 11 1011.4 1010.4 0.0
20/07:00am 27.7 30.2 21.7 70 4.0 NNW 11 15 6 8 1011.1 1010.1 0.0
20/06:30am 27.3 30.2 21.8 72 3.7 N 9 13 5 7 1010.8 1009.8 0.0
20/06:00am 27.2 30.2 21.9 73 3.6 NNW 9 13 5 7 1010.6 1009.6 0.0
20/05:30am 27.5 30.5 22.0 72 3.7 NNW 9 13 5 7 1010.3 1009.3 0.0
20/05:00am 27.6 30.2 21.9 71 3.8 NNW 11 15 6 8 1010.1 1009.1 0.0
20/04:30am 27.8 30.3 21.8 70 4.0 NNW 11 15 6 8 1009.8 1008.8 0.0
20/04:00am 28.0 30.3 22.0 70 4.1 NNW 13 17 7 9 1009.7 1008.7 0.0
20/03:30am 28.1 30.5 22.3 70 3.9 NNW 13 17 7 9 1009.5 1008.5 0.0
20/03:00am 28.4 30.8 22.2 69 4.2 NNW 13 19 7 10 1009.6 1008.6 0.0
20/02:30am 28.4 30.4 22.2 69 4.2 NW 15 17 8 9 1009.5 1008.5 0.0
20/02:00am 28.8 31.1 22.1 67 4.5 NNW 13 20 7 11 1009.9 1008.9 0.0
20/01:30am 28.9 31.1 21.9 66 4.7 NNW 13 17 7 9 1010.1 1009.1 0.0
20/01:00am 28.7 30.0 21.7 66 4.7 NNW 17 24 9 13 1010.2 1009.2 0.0
20/12:30am 29.1 29.5 21.8 64 4.9 NW 22 30 12 16 1010.1 1009.1 0.0
20/12:00am 29.5 31.4 21.4 61 5.5 WNW 13 20 7 11 1009.9 1008.9 0.0
 
Date/Time
CST
Temp
°C
App
Temp
°C
Dew
Point
°C
Rel
Hum
%
Delta-T
°C
Wind Press
QNH
hPa
Press
MSL
hPa
Rain since
9am
mm
Dir  Spd
km/h
Gust
km/h
Spd
kts
Gust
kts
19/11:30pm 29.8 31.1 21.7 61 5.5 WNW 17 20 9 11 1010.0 1009.0 0.0
19/11:00pm 30.3 30.5 21.4 59 6.0 NW 22 28 12 15 1010.2 1009.2 0.0
19/10:30pm 31.1 31.4 20.7 54 7.0 NW 20 24 11 13 1010.3 1009.3 0.0
19/10:00pm 31.8 30.6 20.1 50 7.8 NW 26 35 14 19 1010.0 1009.0 0.0
19/09:55pm 31.9 30.2 19.9 49 8.0 WNW 28 35 15 19 1010.0 1009.0 0.0
19/09:30pm 31.1 33.5 18.8 48 8.0 ENE 4 13 2 7 1009.5 1008.5 0.0
19/09:00pm 30.2 32.8 17.6 46 8.1 CALM 0 0 0 0 1008.7 1007.6 0.0
19/08:30pm 31.3 33.9 17.6 44 8.8 CALM 0 0 0 0 1008.2 1007.1 0.0
19/08:00pm 32.6 35.1 17.2 39 9.9 CALM 0 0 0 0 1007.6 1006.6 0.0
19/07:30pm 33.1 35.8 17.7 40 10.0 CALM 0 0 0 0 1007.3 1006.3 0.0
19/07:00pm 33.4 35.7 16.7 36 10.6 CALM 0 6 0 3 1006.6 1005.6 0.0
19/06:30pm 34.3 35.4 16.6 34 11.3 SSE 6 7 3 4 1006.3 1005.3 0.0
19/06:00pm 35.9 36.6 16.1 30 12.6 SSE 7 13 4 7 1006.1 1005.1 0.0
19/05:30pm 36.1 35.4 16.3 31 12.7 SSE 15 24 8 13 1005.8 1004.8 0.0
19/05:00pm 37.8 37.1 13.1 23 15.2 NE 9 17 5 9 1005.6 1004.6 0.0
19/04:30pm 38.1 35.9 13.3 22 15.4 ENE 17 26 9 14 1005.5 1004.5 0.0
19/04:00pm 37.9 37.8 13.8 23 15.0 NE 7 15 4 8 1005.6 1004.6 0.0
19/03:30pm 37.6 36.5 14.2 25 14.6 N 13 26 7 14 1006.0 1005.0 0.0
19/03:00pm 37.8 37.6 15.6 27 14.2 WNW 11 17 6 9 1006.5 1005.5 0.0
19/02:30pm 37.0 36.7 15.5 28 13.7 E 11 17 6 9 1006.9 1005.9 0.0
19/02:00pm 37.3 37.5 15.7 27 13.8 NNE 9 20 5 11 1007.4 1006.4 0.0
19/01:30pm 36.8 37.2 16.4 30 13.1 N 9 17 5 9 1008.3 1007.2 0.0
19/01:00pm 35.7 36.5 15.9 30 12.6 NNW 6 15 3 8 1009.1 1008.1 0.0
19/12:30pm 35.6 35.3 17.3 33 11.9 NW 15 26 8 14 1009.8 1008.8 0.0
19/12:00pm 35.2 35.7 17.4 34 11.5 WNW 11 17 6 9 1010.4 1009.4 0.0
19/11:30am 34.7 35.7 18.7 38 10.5 NNW 11 22 6 12 1010.8 1009.8 0.0
19/11:00am 33.9 35.7 20.3 45 9.1 NNW 11 26 6 14 1011.2 1010.2 0.0
19/10:30am 33.1 34.3 20.6 47 8.4 NW 15 22 8 12 1011.7 1010.7 0.0
19/10:00am 32.2 32.9 20.5 50 7.8 NW 17 28 9 15 1012.1 1011.1 0.0
19/09:30am 31.3 31.4 20.3 52 7.3 NW 20 30 11 16 1012.3 1011.3 0.0
19/09:00am 30.8 31.2 20.7 55 6.8 WNW 19 26 10 14 1012.3 1011.3 0.0
19/08:30am 29.8 30.3 21.2 60 5.8 NW 20 28 11 15 1012.3 1011.3 0.0
19/08:00am 28.9 30.2 21.7 65 4.9 NNW 17 26 9 14 1012.3 1011.3 0.0
19/07:30am 27.9 29.3 21.9 70 4.0 NNW 17 20 9 11 1012.0 1011.0 0.0
19/07:00am 27.4 29.6 21.9 72 3.7 N 13 17 7 9 1011.3 1010.3 0.0
19/06:30am 26.9 29.2 21.4 72 3.7 N 11 15 6 8 1011.0 1010.0 0.0
19/06:00am 26.9 29.0 21.0 70 3.9 NNW 11 15 6 8 1010.7 1009.7 0.0
19/05:30am 27.3 29.0 20.9 68 4.3 NNW 13 17 7 9 1010.5 1009.5 0.0
19/05:00am 27.5 29.3 21.1 68 4.3 N 13 20 7 11 1010.1 1009.1 0.0
19/04:30am 27.7 29.3 20.8 66 4.6 N 13 20 7 11 1010.0 1009.0 0.0
19/04:00am 27.9 29.6 21.0 66 4.6 N 13 19 7 10 1010.1 1009.1 0.0
19/03:30am 28.2 30.2 21.5 67 4.5 NNW 13 20 7 11 1010.0 1009.0 0.0
19/03:00am 28.4 30.3 21.4 66 4.7 NNW 13 17 7 9 1010.2 1009.2 0.0
19/02:30am 28.7 29.7 21.7 66 4.7 NNW 19 22 10 12 1010.2 1009.2 0.0
19/02:00am 29.0 31.1 21.7 64 4.9 NNW 13 19 7 10 1010.4 1009.4 0.0
19/01:30am 29.2 30.3 21.2 62 5.4 NW 17 24 9 13 1010.5 1009.5 0.0
19/01:00am 29.5 30.6 21.2 61 5.6 NNW 17 20 9 11 1010.5 1009.5 0.0
19/12:30am 30.2 31.0 19.9 54 6.8 NE 15 20 8 11 1010.8 1009.8 0.0
19/12:00am 29.9 29.6 18.3 49 7.5 NW 17 20 9 11 1009.7 1008.7 0.0
 
Date/Time
CST
Temp
°C
App
Temp
°C
Dew
Point
°C
Rel
Hum
%
Delta-T
°C
Wind Press
QNH
hPa
Press
MSL
hPa
Rain since
9am
mm
Dir  Spd
km/h
Gust
km/h
Spd
kts
Gust
kts
18/11:30pm 30.1 31.3 16.9 45 8.4 NNW 6 9 3 5 1009.8 1008.8 0.0
18/11:00pm 29.4 30.8 15.5 43 8.6 NE 2 7 1 4 1009.7 1008.7 0.0
18/10:30pm 29.5 31.5 16.0 44 8.4 CALM 0 0 0 0 1009.5 1008.5 0.0
18/10:00pm 29.0 30.7 15.2 43 8.5 CALM 0 0 0 0 1009.3 1008.3 0.0
18/09:30pm 29.9 31.3 14.4 38 9.5 CALM 0 0 0 0 1008.9 1007.8 0.0
18/09:00pm 30.6 32.0 14.3 37 10.0 CALM 0 0 0 0 1008.6 1007.5 0.0
18/08:30pm 31.4 32.5 14.5 35 10.4 SW 2 6 1 3 1008.3 1007.2 0.0
18/08:00pm 31.6 32.9 15.1 36 10.2 S 2 7 1 4 1008.1 1007.0 0.0
18/07:30pm 33.5 33.7 13.0 29 12.4 SE 4 7 2 4 1007.7 1006.7 0.0
18/07:00pm 34.7 33.6 11.8 25 13.7 E 9 13 5 7 1007.4 1006.4 0.0
18/06:30pm 35.7 34.4 11.4 23 14.5 E 9 13 5 7 1007.0 1006.0 0.0
18/06:00pm 37.0 35.3 11.1 21 15.5 ESE 11 20 6 11 1006.5 1005.5 0.0
18/05:30pm 37.7 36.1 11.6 21 15.7 SE 11 17 6 9 1006.4 1005.4 0.0
18/05:00pm 37.9 34.9 11.8 21 15.8 ENE 19 24 10 13 1006.2 1005.2 0.0
18/04:30pm 37.7 37.2 13.7 24 14.9 S 9 15 5 8 1006.3 1005.3 0.0
18/04:00pm 36.4 35.3 13.2 25 14.2 ESE 11 15 6 8 1006.8 1005.8 0.0
18/03:30pm 38.0 38.4 15.2 26 14.5 E 7 15 4 8 1007.3 1006.3 0.0
18/03:00pm 36.3 35.4 14.9 28 13.5 NNE 13 32 7 17 1007.8 1006.8 0.0
18/02:30pm 36.4 35.9 15.0 28 13.5 NNE 11 17 6 9 1008.2 1007.1 0.0
18/02:00pm 37.1 37.8 16.1 29 13.4 S 7 22 4 12 1008.5 1007.4 0.0
18/01:30pm 36.2 35.7 16.9 32 12.5 W 15 24 8 13 1009.1 1008.1 0.0
18/01:00pm 35.9 36.6 17.1 32 12.1 N 9 15 5 8 1009.8 1008.8 0.0
18/12:30pm 35.7 36.0 16.9 32 12.1 N 11 15 6 8 1010.4 1009.4 0.0
18/12:00pm 35.4 36.7 17.6 35 11.6 NNW 7 20 4 11 1011.1 1010.1 0.0
18/11:30am 34.2 34.9 17.0 36 11.0 WNW 9 20 5 11 1011.6 1010.6 0.0
18/11:00am 33.0 34.2 19.8 45 8.8 NW 13 20 7 11 1012.0 1011.0 0.0
18/10:30am 32.3 33.4 20.5 49 7.9 NW 15 24 8 13 1012.4 1011.4 0.0
18/10:00am 31.7 32.6 20.9 52 7.3 WNW 17 24 9 13 1012.8 1011.8 0.0
18/09:30am 30.5 31.3 21.3 58 6.2 NW 19 24 10 13 1012.9 1011.9 0.0
18/09:00am 29.8 31.1 21.7 61 5.5 NW 17 22 9 12 1013.0 1012.0 0.0
18/08:30am 28.9 31.1 22.6 69 4.3 NW 15 22 8 12 1012.9 1011.9 0.0
18/08:00am 27.9 30.1 22.6 73 3.6 NNW 15 19 8 10 1012.6 1011.6 0.0
18/07:30am 27.0 30.1 22.8 78 2.9 NNW 11 13 6 7 1012.2 1011.2 0.0
18/07:00am 26.2 30.0 22.7 81 2.4 N 7 9 4 5 1011.6 1010.6 0.0
18/06:30am 25.6 29.2 22.3 82 2.2 N 7 9 4 5 1011.2 1010.2 0.0
18/06:00am 25.6 29.2 22.3 82 2.2 N 7 11 4 6 1010.8 1009.8 0.0
18/05:30am 25.4 28.9 22.1 82 2.2 N 7 9 4 5 1010.6 1009.6 0.0
18/05:00am 25.2 28.8 22.3 84 2.0 NW 7 9 4 5 1010.3 1009.3 0.0
18/04:30am 25.4 29.0 22.3 83 2.1 NNW 7 11 4 6 1010.1 1009.1 0.0
18/04:00am 25.2 29.2 22.7 86 1.7 NNW 6 11 3 6 1010.0 1009.0 0.0
18/03:30am 25.1 28.8 22.6 86 1.7 N 7 11 4 6 1009.9 1008.9 0.0
18/03:00am 25.0 28.1 22.1 84 1.9 WNW 9 11 5 6 1009.7 1008.7 0.0
18/02:30am 25.2 26.9 21.7 81 2.3 NNW 15 20 8 11 1010.1 1009.1 0.0
18/02:17am 25.8 27.2 21.9 79 2.6 NNW 17 22 9 12 1010.2 1009.2 0.0
18/02:00am 25.6 24.7 22.1 81 2.4 NW 30 44 16 24 1010.2 1009.2 0.0
18/01:57am 26.3 26.6 21.5 75 3.2 NNW 22 41 12 22 1010.2 1009.2 0.0
18/01:30am 28.0 29.2 20.6 64 4.9 NNW 15 22 8 12 1010.6 1009.6 0.0
18/01:00am 28.1 28.8 20.4 63 5.1 NNW 17 22 9 12 1010.7 1009.7 0.0
18/12:30am 28.4 28.8 20.7 63 5.1 NNW 19 28 10 15 1010.6 1009.6 0.0
18/12:00am 28.4 28.8 20.7 63 5.1 NNW 19 26 10 14 1010.8 1009.8 0.0
 
Date/Time
CST
Temp
°C
App
Temp
°C
Dew
Point
°C
Rel
Hum
%
Delta-T
°C
Wind Press
QNH
hPa
Press
MSL
hPa
Rain since
9am
mm
Dir  Spd
km/h
Gust
km/h
Spd
kts
Gust
kts
17/11:30pm 28.8 28.0 20.0 59 5.8 NW 24 32 13 17 1010.5 1009.5 0.0
17/11:00pm 29.0 26.4 19.6 57 6.2 NW 32 41 17 22 1010.4 1009.4 0.0
17/10:30pm 30.2 28.1 18.9 50 7.4 NW 28 35 15 19 1009.8 1008.8 0.0
17/10:26pm 30.3 29.0 19.0 50 7.4 NW 24 35 13 19 1009.8 1008.8 0.0
17/10:00pm 30.4 32.0 17.8 46 8.1 W 6 9 3 5 1009.3 1008.3 0.0
17/09:30pm 30.9 31.3 17.2 43 8.7 W 11 15 6 8 1008.8 1007.7 0.0
17/09:00pm 30.3 32.3 17.0 44 8.4 NE 2 6 1 3 1008.4 1007.3 0.0
17/08:30pm 30.9 33.5 17.6 45 8.5 CALM 0 0 0 0 1008.2 1007.1 0.0
17/08:00pm 31.7 33.3 16.0 38 9.9 SSW 2 7 1 4 1007.7 1006.7 0.0
17/07:30pm 32.5 33.5 16.3 37 10.3 WSW 6 9 3 5 1007.4 1006.4 0.0
17/07:00pm 34.2 33.8 13.1 28 12.8 E 7 9 4 5 1006.9 1005.9 0.0
17/06:30pm 35.3 34.5 12.9 26 13.6 E 9 11 5 6 1006.4 1005.4 0.0
17/06:00pm 35.9 34.5 13.4 26 13.8 SE 13 15 7 8 1006.2 1005.2 0.0
17/05:30pm 36.4 36.7 14.4 27 13.7 W 6 11 3 6 1005.9 1004.9 0.0
17/05:00pm 37.6 37.2 14.2 25 14.6 WSW 9 15 5 8 1005.8 1004.8 0.0
17/04:30pm 37.1 36.8 14.4 26 14.2 SSE 9 17 5 9 1005.9 1004.9 0.0
17/04:00pm 35.9 36.2 14.5 27 13.3 WSW 6 13 3 7 1006.2 1005.2 0.0
17/03:30pm 35.7 34.8 13.8 27 13.5 E 11 19 6 10 1006.7 1005.7 0.0
17/03:00pm 36.5 36.2 14.5 27 13.8 N 9 17 5 9 1006.8 1005.8 0.0
17/02:30pm 36.9 36.9 14.2 25 14.2 W 7 15 4 8 1007.1 1006.1 0.0
17/02:00pm 36.1 35.9 14.7 28 13.4 SW 9 17 5 9 1007.7 1006.7 0.0
17/01:30pm 35.4 34.8 15.7 31 12.5 N 13 22 7 12 1008.4 1007.3 0.0
17/01:00pm 36.0 35.2 16.2 31 12.6 NNE 15 30 8 16 1009.0 1007.9 0.0
17/12:30pm 34.0 33.7 16.4 35 11.2 ENE 13 19 7 10 1009.8 1008.8 0.0
17/12:00pm 34.0 33.9 15.9 33 11.4 ENE 11 22 6 12 1010.4 1009.4 0.0
17/11:30am 33.8 33.2 15.7 33 11.4 NNE 13 22 7 12 1010.9 1009.9 0.0
17/11:00am 33.6 35.1 18.1 39 10.1 NW 7 15 4 8 1011.2 1010.2 0.0

Other formats

Comma delimited format used in spreadsheet applications
http://www.bom.gov.au/fwo/IDD60801/IDD60801.94131.axf

JavaScript Object Notation format (JSON) in row-major order
http://www.bom.gov.au/fwo/IDD60801/IDD60801.94131.json

Data quality

Most of these data are generated automatically and are frequently updated. Quality checks on data are not normally performed. It is possible for incorrect values to appear. Refer to information at About Latest Weather Observations and please check the disclaimer before using these data.